createdAt,value
2018-06-24T06:37:58.381Z,17.5
2018-06-24T06:38:59.775Z,17.6
2018-06-24T06:40:01.160Z,17.5
2018-06-24T06:41:02.534Z,17.6
2018-06-24T06:42:03.928Z,17.5
2018-06-24T06:43:05.378Z,17.5
2018-06-24T06:44:06.832Z,17.6
2018-06-24T06:45:10.665Z,17.5
2018-06-24T06:46:12.023Z,17.5
2018-06-24T06:47:13.532Z,17.5
2018-06-24T06:48:14.903Z,17.6
2018-06-24T06:49:16.319Z,17.6
2018-06-24T06:50:17.767Z,17.7
2018-06-24T06:51:19.207Z,17.8
2018-06-24T06:52:20.630Z,17.9
2018-06-24T06:53:22.052Z,17.9
2018-06-24T06:54:23.469Z,17.9
2018-06-24T06:55:24.875Z,17.9
2018-06-24T06:56:26.301Z,18.0
2018-06-24T06:57:27.765Z,18.0
2018-06-24T06:58:29.216Z,18.0
2018-06-24T06:59:30.665Z,18.0
2018-06-24T07:00:32.091Z,18.0
2018-06-24T07:01:33.567Z,18.1
2018-06-24T07:02:34.993Z,18.0
2018-06-24T07:03:36.463Z,18.0
2018-06-24T07:04:37.896Z,18.0
2018-06-24T07:05:39.349Z,18.0
2018-06-24T07:06:40.765Z,18.1
2018-06-24T07:07:42.248Z,18.1
2018-06-24T07:08:43.697Z,18.2
2018-06-24T07:09:45.169Z,18.3
2018-06-24T07:10:46.611Z,18.4
2018-06-24T07:11:48.064Z,18.3
2018-06-24T07:12:49.568Z,18.5
2018-06-24T07:13:51.068Z,18.3
2018-06-24T07:14:52.487Z,18.4
2018-06-24T07:15:53.915Z,18.3
2018-06-24T07:16:55.473Z,18.4
2018-06-24T07:17:56.905Z,18.3
2018-06-24T07:18:58.329Z,18.5
2018-06-24T07:19:59.753Z,18.5
2018-06-24T07:21:01.202Z,18.7
2018-06-24T07:22:02.709Z,18.7
2018-06-24T07:23:04.109Z,18.7
2018-06-24T07:24:05.505Z,18.8
2018-06-24T07:25:06.960Z,18.8
2018-06-24T07:26:08.412Z,18.8
2018-06-24T07:27:09.883Z,18.9
2018-06-24T07:28:11.312Z,18.9
2018-06-24T07:29:12.746Z,18.9
2018-06-24T07:30:14.150Z,19.0
2018-06-24T07:31:15.647Z,19.0
2018-06-24T07:32:17.076Z,19.1
2018-06-24T07:33:18.572Z,19.2
2018-06-24T07:34:20.018Z,19.3
2018-06-24T07:35:21.429Z,19.1
2018-06-24T07:36:22.879Z,19.2
2018-06-24T07:37:24.324Z,19.2
2018-06-24T07:38:25.795Z,19.3
2018-06-24T07:39:27.238Z,19.4
2018-06-24T07:40:28.652Z,19.4
2018-06-24T07:41:30.126Z,19.4
2018-06-24T07:42:31.533Z,19.4
2018-06-24T07:43:33.032Z,19.4
2018-06-24T07:44:34.499Z,19.5
2018-06-24T07:45:35.948Z,19.5
2018-06-24T07:46:37.396Z,19.4
2018-06-24T07:47:38.795Z,19.5
2018-06-24T07:48:40.262Z,19.4
2018-06-24T07:49:41.793Z,19.4
2018-06-24T07:50:43.288Z,19.4
2018-06-24T07:51:44.749Z,19.5
2018-06-24T07:52:46.144Z,19.6
2018-06-24T07:53:47.721Z,19.6
2018-06-24T07:54:49.161Z,19.6
2018-06-24T07:55:50.583Z,19.7
2018-06-24T07:56:52.074Z,19.7
2018-06-24T07:57:53.493Z,19.7
2018-06-24T07:58:54.985Z,19.6
2018-06-24T07:59:56.460Z,19.6
2018-06-24T08:00:57.896Z,19.5
2018-06-24T08:01:59.313Z,19.6
2018-06-24T08:03:00.718Z,19.7
2018-06-24T08:04:02.164Z,19.8
2018-06-24T08:05:03.626Z,19.8
2018-06-24T08:06:05.078Z,19.8
2018-06-24T08:07:06.632Z,19.8
2018-06-24T08:08:08.080Z,19.8
2018-06-24T08:09:09.520Z,19.8
2018-06-24T08:10:10.977Z,19.9
2018-06-24T08:11:12.434Z,19.9
2018-06-24T08:12:13.872Z,19.9
2018-06-24T08:13:15.316Z,20.0
2018-06-24T08:14:16.750Z,20.1
2018-06-24T08:15:18.231Z,20.1
2018-06-24T08:16:19.682Z,20.1
2018-06-24T08:17:21.175Z,20.2
2018-06-24T08:18:22.702Z,20.3
2018-06-24T08:19:24.139Z,20.3
2018-06-24T08:20:25.528Z,20.2
2018-06-24T08:21:26.974Z,20.2
2018-06-24T08:22:28.399Z,20.4
2018-06-24T08:23:29.843Z,20.4
2018-06-24T08:24:31.295Z,20.4
2018-06-24T08:25:32.822Z,20.4
2018-06-24T08:26:34.263Z,20.5
2018-06-24T08:27:35.707Z,20.6
2018-06-24T08:28:37.203Z,20.6
2018-06-24T08:29:38.626Z,20.6
2018-06-24T08:30:40.061Z,20.6
2018-06-24T08:31:41.568Z,20.5
2018-06-24T08:32:42.969Z,20.6
2018-06-24T08:33:44.418Z,20.6
2018-06-24T08:34:45.859Z,20.8
2018-06-24T08:35:47.310Z,21.0
2018-06-24T08:36:48.803Z,21.0
2018-06-24T08:37:50.236Z,21.0
2018-06-24T08:38:51.710Z,21.2
2018-06-24T08:39:53.168Z,21.3
2018-06-24T08:40:54.658Z,21.3
2018-06-24T08:41:56.139Z,21.2
2018-06-24T08:42:57.704Z,21.4
2018-06-24T08:43:59.196Z,21.4
2018-06-24T08:45:00.609Z,21.5
2018-06-24T08:46:02.062Z,21.6
2018-06-24T08:47:03.550Z,21.7
2018-06-24T08:48:05.017Z,22.0
2018-06-24T08:49:06.432Z,22.2
2018-06-24T08:50:07.865Z,22.4
2018-06-24T08:51:09.346Z,22.4
2018-06-24T08:52:10.772Z,22.5
2018-06-24T08:53:12.200Z,22.5
2018-06-24T08:54:13.735Z,22.5
2018-06-24T08:55:15.182Z,22.6
2018-06-24T08:56:16.730Z,22.7
2018-06-24T08:57:18.451Z,22.6
2018-06-24T08:58:20.217Z,22.6
2018-06-24T08:59:21.666Z,22.6
2018-06-24T09:00:23.117Z,22.6
2018-06-24T09:01:24.544Z,22.5
2018-06-24T09:02:26.059Z,22.9
2018-06-24T09:03:27.478Z,23.0
2018-06-24T09:04:28.956Z,23.0
2018-06-24T09:05:30.554Z,23.0
2018-06-24T09:06:31.927Z,23.0
2018-06-24T09:07:33.433Z,23.0
2018-06-24T09:08:34.934Z,23.0
2018-06-24T09:09:36.434Z,23.1
2018-06-24T09:10:37.888Z,23.0
2018-06-24T09:11:39.323Z,22.7
2018-06-24T09:12:40.757Z,22.5
2018-06-24T09:13:42.256Z,22.5
2018-06-24T09:14:43.791Z,22.5
2018-06-24T09:15:45.396Z,22.5
2018-06-24T09:16:46.845Z,22.5
2018-06-24T09:17:48.351Z,22.3
2018-06-24T09:18:49.889Z,22.2
2018-06-24T09:19:51.452Z,21.9
2018-06-24T09:20:52.916Z,21.8
2018-06-24T09:21:54.668Z,21.9
2018-06-24T09:22:56.053Z,21.9
2018-06-24T09:23:57.520Z,21.9
2018-06-24T09:24:58.996Z,22.0
2018-06-24T09:26:00.456Z,22.0
2018-06-24T09:27:01.896Z,22.0
2018-06-24T09:28:03.677Z,21.8
2018-06-24T09:29:05.299Z,21.8
2018-06-24T09:30:06.689Z,21.7
2018-06-24T09:31:08.105Z,21.5
2018-06-24T09:32:09.531Z,21.5
2018-06-24T09:33:11.018Z,21.6
2018-06-24T09:34:12.471Z,21.6
2018-06-24T09:35:13.906Z,21.5
2018-06-24T09:36:15.304Z,21.7
2018-06-24T09:37:16.719Z,21.7
2018-06-24T09:38:18.144Z,21.7
2018-06-24T09:39:19.550Z,21.7
2018-06-24T09:40:20.983Z,21.6
2018-06-24T09:41:22.395Z,21.7
2018-06-24T09:42:23.828Z,22.0
2018-06-24T09:43:25.276Z,21.9
2018-06-24T09:44:26.700Z,22.1
2018-06-24T09:45:28.150Z,22.1
2018-06-24T09:46:29.569Z,22.2
2018-06-24T09:47:31.051Z,22.2
2018-06-24T09:48:32.819Z,22.4
2018-06-24T09:49:34.235Z,22.4
2018-06-24T09:50:35.697Z,22.4
2018-06-24T09:51:37.134Z,22.5
2018-06-24T09:52:38.612Z,22.4
2018-06-24T09:53:40.065Z,22.4
2018-06-24T09:54:41.521Z,22.5
2018-06-24T09:55:42.966Z,22.6
2018-06-24T09:56:44.410Z,22.7
2018-06-24T09:57:45.838Z,22.6
2018-06-24T09:58:47.297Z,22.6
2018-06-24T09:59:48.734Z,22.8
2018-06-24T10:00:50.136Z,23.0
2018-06-24T10:01:51.577Z,23.2
2018-06-24T10:02:53.069Z,23.2
2018-06-24T10:03:54.484Z,23.3
2018-06-24T10:04:55.991Z,23.3
2018-06-24T10:05:57.596Z,23.1
2018-06-24T10:06:59.019Z,23.3
2018-06-24T10:08:00.489Z,23.2
2018-06-24T10:09:01.939Z,23.4
2018-06-24T10:10:03.388Z,23.3
2018-06-24T10:11:04.911Z,23.2
2018-06-24T10:12:06.356Z,23.5
2018-06-24T10:13:07.823Z,23.5
2018-06-24T10:14:09.239Z,23.7
2018-06-24T10:15:10.733Z,23.8
2018-06-24T10:16:12.138Z,23.6
2018-06-24T10:17:13.617Z,23.7
2018-06-24T10:18:15.052Z,23.6
2018-06-24T10:19:16.477Z,23.5
2018-06-24T10:20:17.891Z,23.4
2018-06-24T10:21:19.377Z,23.5
2018-06-24T10:22:20.855Z,23.4
2018-06-24T10:23:22.314Z,23.3
2018-06-24T10:24:23.753Z,23.2
2018-06-24T10:25:25.218Z,23.3
2018-06-24T10:26:26.704Z,23.2
2018-06-24T10:27:28.172Z,23.2
2018-06-24T10:28:29.629Z,23.3
2018-06-24T10:29:31.157Z,23.2
2018-06-24T10:30:32.774Z,23.1
2018-06-24T10:31:34.248Z,22.9
2018-06-24T10:32:35.755Z,23.0
2018-06-24T10:33:37.243Z,23.0
2018-06-24T10:34:38.652Z,23.1
2018-06-24T10:35:40.074Z,23.2
2018-06-24T10:36:41.506Z,23.3
2018-06-24T10:37:42.954Z,23.3
2018-06-24T10:38:44.412Z,23.5
2018-06-24T10:39:45.876Z,23.6
2018-06-24T10:40:47.289Z,23.7
2018-06-24T10:41:48.726Z,23.5
2018-06-24T10:42:50.540Z,23.3
2018-06-24T10:43:52.010Z,23.1
2018-06-24T10:44:53.478Z,23.0
2018-06-24T10:45:54.907Z,23.0
2018-06-24T10:46:56.387Z,23.1
2018-06-24T10:47:57.808Z,23.3
2018-06-24T10:48:59.244Z,23.1
2018-06-24T10:50:00.700Z,23.2
2018-06-24T10:51:02.128Z,23.3
2018-06-24T10:52:03.559Z,23.3
2018-06-24T10:53:05.356Z,23.4
2018-06-24T10:54:07.046Z,23.3
2018-06-24T10:55:08.482Z,23.4
2018-06-24T10:56:10.022Z,23.5
2018-06-24T10:57:11.499Z,23.4
2018-06-24T10:58:12.943Z,23.3
2018-06-24T10:59:14.409Z,23.3
2018-06-24T11:00:15.874Z,23.3
2018-06-24T11:01:17.337Z,23.2
2018-06-24T11:02:19.117Z,23.3
2018-06-24T11:03:20.852Z,23.2
2018-06-24T11:04:22.541Z,23.2
2018-06-24T11:05:23.944Z,23.3
2018-06-24T11:06:25.383Z,23.3
2018-06-24T11:07:26.932Z,23.3
2018-06-24T11:08:28.332Z,23.1
2018-06-24T11:09:29.790Z,22.9
2018-06-24T11:10:31.276Z,22.9
2018-06-24T11:11:32.715Z,22.9
2018-06-24T11:12:34.130Z,22.8
2018-06-24T11:13:35.610Z,22.8
2018-06-24T11:14:37.052Z,22.9
2018-06-24T11:15:38.511Z,23.0
2018-06-24T11:16:39.924Z,23.0
2018-06-24T11:17:41.385Z,23.0
2018-06-24T11:18:42.819Z,23.1
2018-06-24T11:19:44.279Z,23.1
2018-06-24T11:20:45.707Z,23.2
2018-06-24T11:21:47.141Z,23.3
2018-06-24T11:22:48.563Z,23.2
2018-06-24T11:23:50.020Z,23.2
2018-06-24T11:24:51.456Z,23.2
2018-06-24T11:25:52.895Z,22.8
2018-06-24T11:26:54.317Z,22.8
2018-06-24T11:27:55.778Z,22.4
2018-06-24T11:28:57.227Z,22.3
2018-06-24T11:29:58.643Z,22.3
2018-06-24T11:31:00.099Z,22.3
2018-06-24T11:32:01.554Z,22.4
2018-06-24T11:33:02.956Z,22.4
2018-06-24T11:34:04.393Z,22.3
2018-06-24T11:35:05.802Z,22.3
2018-06-24T11:36:07.226Z,22.2
2018-06-24T11:37:08.692Z,22.1
2018-06-24T11:38:10.389Z,22.3
2018-06-24T11:39:11.815Z,22.2
2018-06-24T11:40:13.242Z,22.3
2018-06-24T11:41:14.697Z,22.3
2018-06-24T11:42:16.130Z,22.3
2018-06-24T11:43:17.534Z,22.1
2018-06-24T11:44:18.930Z,22.2
2018-06-24T11:45:20.414Z,22.1
2018-06-24T11:46:21.815Z,22.1
2018-06-24T11:47:23.234Z,22.1
2018-06-24T11:48:24.705Z,22.0
2018-06-24T11:49:26.183Z,21.8
2018-06-24T11:50:27.570Z,21.8
2018-06-24T11:51:29.032Z,21.5
2018-06-24T11:52:30.479Z,21.3
2018-06-24T11:53:31.949Z,21.1
2018-06-24T11:54:33.373Z,21.1
2018-06-24T11:55:34.833Z,21.1
2018-06-24T11:56:36.277Z,21.0
2018-06-24T11:57:37.742Z,21.1
2018-06-24T11:58:39.208Z,21.0
2018-06-24T11:59:40.622Z,21.0
2018-06-24T12:00:42.051Z,21.0
2018-06-24T12:01:43.484Z,21.0
2018-06-24T12:02:44.995Z,20.9
2018-06-24T12:03:46.376Z,20.9
2018-06-24T12:04:47.790Z,20.9
2018-06-24T12:05:49.283Z,20.7
2018-06-24T12:06:50.694Z,20.7
2018-06-24T12:07:52.156Z,20.8
2018-06-24T12:08:53.635Z,20.9
2018-06-24T12:09:55.052Z,21.0
2018-06-24T12:10:56.524Z,21.0
2018-06-24T12:11:58.114Z,21.1
2018-06-24T12:12:59.869Z,21.1
2018-06-24T12:14:01.359Z,20.9
2018-06-24T12:15:02.848Z,20.7
2018-06-24T12:16:04.293Z,20.7
2018-06-24T12:17:05.722Z,20.7
2018-06-24T12:18:07.162Z,20.6
2018-06-24T12:19:08.560Z,20.5
2018-06-24T12:20:10.046Z,20.6
2018-06-24T12:21:11.522Z,20.6
2018-06-24T12:22:12.975Z,20.6
2018-06-24T12:23:14.397Z,20.7
2018-06-24T12:24:15.862Z,20.7
2018-06-24T12:25:17.289Z,20.7
2018-06-24T12:26:18.747Z,20.6
2018-06-24T12:27:20.207Z,20.6
2018-06-24T12:28:21.670Z,20.8
2018-06-24T12:29:23.147Z,20.8
2018-06-24T12:30:24.562Z,20.9
2018-06-24T12:31:26.036Z,20.9
2018-06-24T12:32:27.492Z,21.0
2018-06-24T12:33:28.926Z,21.0
2018-06-24T12:34:30.333Z,21.0
2018-06-24T12:35:31.780Z,21.0
2018-06-24T12:36:33.239Z,21.0
2018-06-24T12:37:34.717Z,21.0
2018-06-24T12:38:36.177Z,21.1
2018-06-24T12:39:37.721Z,21.1
2018-06-24T12:40:39.146Z,21.1
2018-06-24T12:41:40.588Z,21.0
2018-06-24T12:42:42.047Z,21.1
2018-06-24T12:43:43.500Z,21.1
2018-06-24T12:44:44.962Z,21.0
2018-06-24T12:45:46.394Z,21.0
2018-06-24T12:46:47.822Z,21.1
2018-06-24T12:47:49.283Z,20.9
2018-06-24T12:48:50.691Z,21.0
2018-06-24T12:49:52.140Z,21.1
2018-06-24T12:50:53.591Z,21.0
2018-06-24T12:51:55.091Z,21.0
2018-06-24T12:52:56.517Z,21.0
2018-06-24T12:53:57.915Z,21.0
2018-06-24T12:54:59.334Z,21.1
2018-06-24T12:56:00.823Z,21.1
2018-06-24T12:57:02.237Z,21.1
2018-06-24T12:58:03.756Z,21.2
2018-06-24T12:59:05.319Z,21.1
2018-06-24T13:00:07.002Z,21.0
2018-06-24T13:01:08.092Z,21.2
2018-06-24T13:02:09.543Z,21.1
2018-06-24T13:03:10.940Z,21.3
2018-06-24T13:04:12.393Z,21.3
2018-06-24T13:05:13.827Z,21.3
2018-06-24T13:06:15.287Z,21.3
2018-06-24T13:07:16.768Z,21.2
2018-06-24T13:08:18.202Z,21.1
2018-06-24T13:09:19.618Z,21.1
2018-06-24T13:10:21.050Z,21.0
2018-06-24T13:11:22.483Z,20.9
2018-06-24T13:12:23.914Z,21.1
2018-06-24T13:13:25.383Z,21.0
2018-06-24T13:14:26.849Z,21.0
2018-06-24T13:15:28.322Z,21.1
2018-06-24T13:16:29.771Z,21.2
2018-06-24T13:17:31.187Z,20.9
2018-06-24T13:18:32.682Z,20.7
2018-06-24T13:19:34.143Z,20.7
2018-06-24T13:20:35.612Z,20.6
2018-06-24T13:21:37.023Z,20.6
2018-06-24T13:22:38.450Z,20.6
2018-06-24T13:23:39.847Z,20.5
2018-06-24T13:24:41.306Z,20.6
2018-06-24T13:25:42.725Z,20.5
2018-06-24T13:26:44.164Z,20.5
2018-06-24T13:27:45.637Z,20.4
2018-06-24T13:28:47.104Z,20.5
2018-06-24T13:29:48.544Z,20.4
2018-06-24T13:30:49.970Z,20.4
2018-06-24T13:31:51.429Z,20.2
2018-06-24T13:32:52.870Z,20.2
2018-06-24T13:33:54.364Z,20.2
2018-06-24T13:34:55.847Z,20.1
2018-06-24T13:35:57.254Z,20.2
2018-06-24T13:36:58.700Z,20.3
2018-06-24T13:38:00.106Z,20.4
2018-06-24T13:39:01.535Z,20.4
2018-06-24T13:40:03.002Z,20.3
2018-06-24T13:41:04.456Z,20.3
2018-06-24T13:42:05.879Z,20.4
2018-06-24T13:43:07.315Z,20.3
2018-06-24T13:44:08.740Z,20.4
2018-06-24T13:45:10.185Z,20.5
2018-06-24T13:46:11.610Z,20.5
2018-06-24T13:47:13.168Z,20.6
2018-06-24T13:48:14.697Z,20.5
2018-06-24T13:49:16.122Z,20.6
2018-06-24T13:50:17.514Z,20.6
2018-06-24T13:51:18.943Z,20.5
2018-06-24T13:52:20.373Z,20.5
2018-06-24T13:53:21.866Z,20.6
2018-06-24T13:54:23.370Z,20.5
2018-06-24T13:55:24.775Z,20.6
2018-06-24T13:56:26.228Z,20.2
2018-06-24T13:57:27.690Z,20.2
2018-06-24T13:58:29.147Z,20.2
2018-06-24T13:59:30.580Z,20.1
2018-06-24T14:00:32.005Z,20.1
2018-06-24T14:01:33.453Z,20.1
2018-06-24T14:02:34.915Z,20.1
2018-06-24T14:03:36.359Z,20.3
2018-06-24T14:04:37.781Z,20.2
2018-06-24T14:05:39.227Z,20.3
2018-06-24T14:06:40.680Z,20.4
2018-06-24T14:07:42.131Z,20.4
2018-06-24T14:08:43.547Z,20.5
2018-06-24T14:09:44.980Z,20.4
2018-06-24T14:10:46.398Z,20.4
2018-06-24T14:11:47.790Z,20.1
2018-06-24T14:12:49.277Z,20.1
2018-06-24T14:13:50.713Z,20.2
2018-06-24T14:14:52.159Z,20.1
2018-06-24T14:15:53.630Z,20.1
2018-06-24T14:16:55.082Z,20.2
2018-06-24T14:17:56.497Z,20.2
2018-06-24T14:18:57.904Z,20.2
2018-06-24T14:19:59.456Z,20.2
2018-06-24T14:21:00.877Z,20.2
2018-06-24T14:22:02.356Z,20.1
2018-06-24T14:23:03.840Z,20.0
2018-06-24T14:24:05.255Z,20.0
2018-06-24T14:25:06.680Z,20.0
2018-06-24T14:26:08.176Z,20.1
2018-06-24T14:27:09.562Z,20.0
2018-06-24T14:28:11.073Z,20.1
2018-06-24T14:29:12.515Z,20.1
2018-06-24T14:30:14.287Z,20.1
2018-06-24T14:31:15.708Z,20.0
2018-06-24T14:32:17.135Z,20.0
2018-06-24T14:33:18.551Z,20.0
2018-06-24T14:34:20.022Z,20.0
2018-06-24T14:35:21.460Z,19.9
2018-06-24T14:36:22.931Z,19.9
2018-06-24T14:37:24.347Z,19.9
2018-06-24T14:38:25.797Z,19.9
2018-06-24T14:39:27.217Z,19.9
2018-06-24T14:40:28.687Z,20.0
2018-06-24T14:41:30.126Z,20.0
2018-06-24T14:42:31.561Z,19.8
2018-06-24T14:43:33.024Z,19.8
2018-06-24T14:44:34.479Z,19.8
2018-06-24T14:45:35.920Z,19.7
2018-06-24T14:46:37.392Z,19.7
2018-06-24T14:47:38.841Z,19.7
2018-06-24T14:48:40.272Z,19.7
2018-06-24T14:49:41.755Z,19.6
2018-06-24T14:50:43.200Z,19.6
2018-06-24T14:51:44.625Z,19.5
2018-06-24T14:52:46.096Z,19.5
2018-06-24T14:53:47.527Z,19.4
2018-06-24T14:54:48.945Z,19.4
2018-06-24T14:55:50.401Z,19.4
2018-06-24T14:56:51.859Z,19.4
2018-06-24T14:57:53.258Z,19.5
2018-06-24T14:58:54.680Z,19.4
2018-06-24T14:59:56.117Z,19.4
2018-06-24T15:00:57.558Z,19.4
2018-06-24T15:01:58.962Z,19.5
2018-06-24T15:03:00.390Z,19.5
2018-06-24T15:04:01.836Z,19.5
2018-06-24T15:05:03.269Z,19.5
2018-06-24T15:06:04.798Z,19.5
2018-06-24T15:07:06.229Z,19.6
2018-06-24T15:08:07.657Z,19.5
2018-06-24T15:09:09.119Z,19.6
2018-06-24T15:10:10.546Z,19.4
2018-06-24T15:11:12.024Z,19.3
2018-06-24T15:12:13.434Z,19.3
2018-06-24T15:13:14.908Z,19.3
2018-06-24T15:14:16.320Z,19.4
2018-06-24T15:15:17.733Z,19.3
2018-06-24T15:16:19.155Z,19.4
2018-06-24T15:17:20.609Z,19.4
2018-06-24T15:18:22.030Z,19.4
2018-06-24T15:19:23.444Z,19.4
2018-06-24T15:20:24.969Z,19.5
2018-06-24T15:21:26.514Z,19.4
2018-06-24T15:22:27.944Z,19.4
2018-06-24T15:23:29.384Z,19.5
2018-06-24T15:24:30.809Z,19.5
2018-06-24T15:25:32.248Z,19.4
2018-06-24T15:26:33.673Z,19.5
2018-06-24T15:27:35.139Z,19.5
2018-06-24T15:28:36.581Z,19.5
2018-06-24T15:29:38.031Z,19.4
2018-06-24T15:30:39.457Z,19.5
2018-06-24T15:31:40.938Z,19.4
2018-06-24T15:32:42.351Z,19.6
2018-06-24T15:33:43.886Z,19.6
2018-06-24T15:34:45.306Z,19.7
2018-06-24T15:35:46.746Z,19.7
2018-06-24T15:36:48.229Z,19.6
2018-06-24T15:37:49.679Z,19.6
2018-06-24T15:38:51.108Z,19.5
2018-06-24T15:39:52.557Z,19.6
2018-06-24T15:40:53.990Z,19.5
2018-06-24T15:41:55.458Z,19.4
2018-06-24T15:42:56.998Z,19.2
2018-06-24T15:43:58.444Z,19.2
2018-06-24T15:44:59.948Z,19.2
2018-06-24T15:46:01.370Z,19.3
2018-06-24T15:47:02.853Z,19.4
2018-06-24T15:48:04.291Z,19.4
2018-06-24T15:49:05.732Z,19.4
2018-06-24T15:50:07.223Z,19.3
2018-06-24T15:51:08.670Z,19.3
2018-06-24T15:52:10.117Z,19.2
2018-06-24T15:53:11.556Z,19.3
2018-06-24T15:54:12.977Z,19.2
2018-06-24T15:55:14.483Z,19.2
2018-06-24T15:56:15.984Z,19.2
2018-06-24T15:57:17.440Z,19.2
2018-06-24T15:58:18.880Z,19.1
2018-06-24T15:59:20.321Z,19.1
2018-06-24T16:00:21.771Z,19.0
2018-06-24T16:01:23.244Z,19.0
2018-06-24T16:02:24.657Z,19.0
2018-06-24T16:03:26.084Z,19.0
2018-06-24T16:04:27.482Z,19.0
2018-06-24T16:05:28.923Z,18.8
2018-06-24T16:06:30.334Z,18.7
2018-06-24T16:07:31.800Z,18.7
2018-06-24T16:08:33.257Z,18.6
2018-06-24T16:09:34.692Z,18.5
2018-06-24T16:10:36.135Z,18.5
2018-06-24T16:11:37.587Z,18.5
2018-06-24T16:12:38.989Z,18.5
2018-06-24T16:13:40.415Z,18.5
2018-06-24T16:14:41.890Z,18.6
2018-06-24T16:15:43.329Z,18.5
2018-06-24T16:16:44.756Z,18.4
2018-06-24T16:17:46.209Z,18.5
2018-06-24T16:18:47.691Z,18.6
2018-06-24T16:19:49.112Z,18.5
2018-06-24T16:20:50.676Z,18.5
2018-06-24T16:21:51.955Z,18.5
2018-06-24T16:22:53.379Z,18.5
2018-06-24T16:23:54.766Z,18.5
2018-06-24T16:24:56.231Z,18.5
2018-06-24T16:25:57.720Z,18.5
2018-06-24T16:26:59.167Z,18.5
2018-06-24T16:28:00.644Z,18.5
2018-06-24T16:29:02.069Z,18.4
2018-06-24T16:30:03.506Z,18.4
2018-06-24T16:31:04.971Z,18.3
2018-06-24T16:32:06.405Z,18.2
2018-06-24T16:33:07.901Z,18.1
2018-06-24T16:34:09.341Z,18.0
2018-06-24T16:35:10.779Z,18.1
2018-06-24T16:36:12.231Z,18.0
2018-06-24T16:37:13.659Z,18.0
2018-06-24T16:38:15.076Z,17.9
2018-06-24T16:39:16.509Z,17.8
2018-06-24T16:40:17.934Z,17.8
2018-06-24T16:41:19.399Z,17.8
2018-06-24T16:42:20.851Z,17.8
2018-06-24T16:43:22.297Z,17.7
2018-06-24T16:44:23.723Z,17.8
2018-06-24T16:45:25.136Z,17.9
2018-06-24T16:46:26.562Z,17.9
2018-06-24T16:47:28.002Z,17.9
2018-06-24T16:48:29.499Z,17.9
2018-06-24T16:49:30.896Z,18.0
2018-06-24T16:50:32.315Z,17.9
2018-06-24T16:51:33.793Z,17.9
2018-06-24T16:52:35.304Z,17.9
2018-06-24T16:53:36.729Z,17.9
2018-06-24T16:54:38.181Z,18.0
2018-06-24T16:55:39.575Z,18.1
2018-06-24T16:56:41.083Z,18.3
2018-06-24T16:57:42.450Z,18.4
2018-06-24T16:58:43.935Z,18.4
2018-06-24T16:59:45.449Z,18.5
2018-06-24T17:00:46.852Z,18.5
2018-06-24T17:01:48.324Z,18.6
2018-06-24T17:02:49.755Z,18.4
2018-06-24T17:03:51.244Z,18.4
2018-06-24T17:04:52.655Z,18.4
2018-06-24T17:05:54.073Z,18.3
2018-06-24T17:06:55.502Z,18.3
2018-06-24T17:07:56.936Z,18.2
2018-06-24T17:08:58.363Z,18.3
2018-06-24T17:09:59.757Z,18.3
2018-06-24T17:11:01.203Z,18.2
2018-06-24T17:12:02.627Z,18.2
2018-06-24T17:13:04.063Z,18.1
2018-06-24T17:14:05.537Z,18.1
2018-06-24T17:15:06.994Z,18.0
2018-06-24T17:16:08.447Z,18.0
2018-06-24T17:17:09.902Z,18.1
2018-06-24T17:18:11.328Z,18.1
2018-06-24T17:19:12.818Z,18.0
2018-06-24T17:20:14.242Z,18.0
2018-06-24T17:21:15.657Z,18.1
2018-06-24T17:22:17.099Z,18.1
2018-06-24T17:23:18.542Z,18.0
2018-06-24T17:24:19.964Z,18.0
2018-06-24T17:25:21.396Z,17.9
2018-06-24T17:26:22.919Z,17.9
2018-06-24T17:27:24.326Z,18.0
2018-06-24T17:28:25.730Z,18.1
2018-06-24T17:29:27.196Z,18.0
2018-06-24T17:30:28.623Z,18.0
2018-06-24T17:31:30.042Z,18.0
2018-06-24T17:32:31.476Z,18.1
2018-06-24T17:33:32.907Z,18.0
2018-06-24T17:34:34.385Z,17.9
2018-06-24T17:35:35.796Z,18.1
2018-06-24T17:36:37.254Z,18.0
2018-06-24T17:37:38.679Z,18.2
2018-06-24T17:38:40.112Z,18.2
2018-06-24T17:39:41.594Z,18.1
2018-06-24T17:40:43.038Z,18.0
2018-06-24T17:41:44.446Z,18.0
2018-06-24T17:42:45.876Z,18.0
2018-06-24T17:43:47.329Z,17.9
2018-06-24T17:44:48.785Z,17.9
2018-06-24T17:45:50.274Z,17.9
2018-06-24T17:46:51.794Z,17.9
2018-06-24T17:47:53.181Z,17.9
2018-06-24T17:48:54.628Z,17.7
2018-06-24T17:49:56.058Z,17.7
2018-06-24T17:50:57.512Z,17.8
2018-06-24T17:51:58.965Z,17.7
2018-06-24T17:53:00.400Z,17.7
2018-06-24T17:54:01.785Z,17.6
2018-06-24T17:55:03.268Z,17.7
2018-06-24T17:56:04.688Z,17.8
2018-06-24T17:57:06.157Z,17.7
2018-06-24T17:58:07.571Z,17.8
2018-06-24T17:59:09.015Z,17.8
2018-06-24T18:00:10.432Z,17.7
2018-06-24T18:01:12.180Z,17.6
2018-06-24T18:02:13.941Z,17.6
2018-06-24T18:03:15.325Z,17.4
2018-06-24T18:04:16.748Z,17.4
2018-06-24T18:05:18.180Z,17.3
2018-06-24T18:06:19.622Z,17.2
2018-06-24T18:07:21.032Z,17.4
2018-06-24T18:08:22.528Z,17.3
2018-06-24T18:09:23.914Z,17.3
2018-06-24T18:10:25.337Z,17.3
2018-06-24T18:11:26.743Z,17.3
2018-06-24T18:12:28.178Z,17.2
2018-06-24T18:13:29.596Z,17.3
2018-06-24T18:14:31.068Z,17.2
2018-06-24T18:15:32.541Z,17.2
2018-06-24T18:16:33.962Z,17.1
2018-06-24T18:17:35.473Z,17.2
2018-06-24T18:18:36.883Z,17.1
2018-06-24T18:19:38.311Z,17.1
2018-06-24T18:20:39.731Z,17.1
2018-06-24T18:21:41.149Z,17.0
2018-06-24T18:22:42.592Z,17.0
2018-06-24T18:23:44.106Z,17.1
2018-06-24T18:24:45.544Z,17.1
2018-06-24T18:25:46.942Z,17.0
2018-06-24T18:26:48.411Z,16.9
2018-06-24T18:27:49.945Z,17.0
2018-06-24T18:28:51.285Z,17.2
2018-06-24T18:29:52.724Z,17.0
2018-06-24T18:30:54.292Z,17.1
2018-06-24T18:31:56.089Z,17.0
2018-06-24T18:32:57.546Z,17.0
2018-06-24T18:33:59.001Z,17.0
2018-06-24T18:35:00.415Z,17.0
2018-06-24T18:36:01.911Z,17.0
2018-06-24T18:37:03.392Z,17.2
2018-06-24T18:38:04.792Z,17.1
2018-06-24T18:39:06.181Z,17.3
2018-06-24T18:40:07.610Z,17.1
2018-06-24T18:41:09.060Z,17.2
2018-06-24T18:42:10.472Z,17.2
2018-06-24T18:43:11.915Z,17.3
2018-06-24T18:44:13.381Z,17.1
2018-06-24T18:45:14.822Z,17.1
2018-06-24T18:46:16.218Z,17.1
2018-06-24T18:47:17.748Z,17.1
2018-06-24T18:48:19.203Z,17.0
2018-06-24T18:49:20.691Z,17.0
2018-06-24T18:50:22.149Z,17.0
2018-06-24T18:51:23.583Z,16.9
2018-06-24T18:52:24.942Z,17.0
2018-06-24T18:53:26.343Z,17.1
2018-06-24T18:54:27.790Z,17.1
2018-06-24T18:55:29.298Z,17.1
2018-06-24T18:56:30.732Z,17.2
2018-06-24T18:57:32.196Z,17.2
2018-06-24T18:58:33.659Z,17.2
2018-06-24T18:59:35.094Z,17.2
2018-06-24T19:00:36.492Z,17.2
2018-06-24T19:01:37.935Z,17.2
2018-06-24T19:02:39.516Z,17.2
2018-06-24T19:03:40.783Z,17.2
2018-06-24T19:04:42.255Z,17.1
2018-06-24T19:05:43.680Z,17.0
2018-06-24T19:06:45.126Z,17.0
2018-06-24T19:07:46.576Z,17.2
2018-06-24T19:08:47.997Z,17.2
2018-06-24T19:09:49.474Z,17.2
2018-06-24T19:10:50.864Z,17.3
2018-06-24T19:11:52.299Z,17.3
2018-06-24T19:12:53.765Z,17.3
2018-06-24T19:13:55.218Z,17.2
2018-06-24T19:14:56.643Z,17.3
2018-06-24T19:15:58.099Z,17.2
2018-06-24T19:16:59.537Z,17.2
2018-06-24T19:18:00.956Z,17.2
2018-06-24T19:19:02.391Z,17.2
2018-06-24T19:20:03.857Z,17.3
2018-06-24T19:21:05.278Z,17.2
2018-06-24T19:22:06.737Z,17.1
2018-06-24T19:23:08.263Z,17.1
2018-06-24T19:24:09.734Z,17.1
2018-06-24T19:25:11.175Z,17.0
2018-06-24T19:26:12.591Z,16.9
2018-06-24T19:27:14.118Z,17.0
2018-06-24T19:28:15.555Z,17.0
2018-06-24T19:29:17.052Z,16.9
2018-06-24T19:30:18.475Z,16.9
2018-06-24T19:31:19.900Z,16.9
2018-06-24T19:32:21.310Z,16.8
2018-06-24T19:33:22.721Z,16.8
2018-06-24T19:34:24.168Z,16.8
2018-06-24T19:35:25.577Z,16.8
2018-06-24T19:36:27.008Z,16.8
2018-06-24T19:37:28.432Z,16.8
2018-06-24T19:38:29.877Z,16.8
2018-06-24T19:39:31.297Z,16.8
2018-06-24T19:40:32.709Z,16.8
2018-06-24T19:41:34.133Z,16.9
2018-06-24T19:42:35.560Z,16.8
2018-06-24T19:43:36.977Z,16.9
2018-06-24T19:44:38.386Z,16.9
2018-06-24T19:45:39.790Z,16.9
2018-06-24T19:46:41.231Z,16.9
2018-06-24T19:47:42.650Z,16.9
2018-06-24T19:48:44.097Z,16.9
2018-06-24T19:49:45.620Z,16.9
2018-06-24T19:50:47.047Z,17.0
2018-06-24T19:51:48.517Z,17.0
2018-06-24T19:52:49.961Z,17.1
2018-06-24T19:53:51.404Z,17.0
2018-06-24T19:54:52.805Z,17.0
2018-06-24T19:55:54.245Z,17.0
2018-06-24T19:56:55.654Z,17.0
2018-06-24T19:57:57.099Z,17.0
2018-06-24T19:58:58.539Z,17.0
2018-06-24T19:59:59.968Z,17.0
2018-06-24T20:01:01.427Z,17.0
2018-06-24T20:02:02.836Z,17.0
2018-06-24T20:03:04.263Z,17.1
2018-06-24T20:04:05.720Z,17.0
2018-06-24T20:05:07.166Z,17.1
2018-06-24T20:06:08.618Z,17.2
2018-06-24T20:07:10.043Z,17.2
2018-06-24T20:08:11.486Z,17.1
2018-06-24T20:09:13.053Z,17.2
2018-06-24T20:10:14.468Z,17.2
2018-06-24T20:11:15.908Z,17.2
2018-06-24T20:12:17.412Z,17.2
2018-06-24T20:13:18.844Z,17.2
2018-06-24T20:14:20.314Z,17.2
2018-06-24T20:15:21.753Z,17.2